Time;durP1;ratioP1;P1;durP2;ratioP2;P2;SDS_P1;SDS_P2;PMS_P1;PMS_P2;Temp;Humidity;BMP_temperature;BMP_pressure;BME280_temperature;BME280_humidity;BME280_pressure;Samples;Min_cycle;Max_cycle;Signal;HPM_P1;HPM_P2
2022/05/13 00:00:59;;;;;;;8.07;6.33;;;;;;;14.64;100.00;97250.25;4936188;28;20389;-65
2022/05/13 00:03:28;;;;;;;6.67;6.07;;;;;;;14.67;100.00;97255.16;4943223;28;20285;-65
2022/05/13 00:05:57;;;;;;;6.10;5.70;;;;;;;14.64;100.00;97255.59;4906852;28;20240;-65
2022/05/13 00:08:25;;;;;;;9.37;5.80;;;;;;;14.62;100.00;97250.44;4946182;28;20672;-64
2022/05/13 00:10:53;;;;;;;6.30;5.80;;;;;;;14.62;100.00;97253.09;4920553;28;20300;-65
2022/05/13 00:13:22;;;;;;;6.63;6.10;;;;;;;14.57;100.00;97260.09;4946919;28;20312;-66
2022/05/13 00:15:50;;;;;;;6.87;6.27;;;;;;;14.55;100.00;97259.47;4929270;28;20645;-64
2022/05/13 00:18:18;;;;;;;5.80;5.40;;;;;;;14.53;100.00;97264.19;4952520;28;20730;-66
2022/05/13 00:20:48;;;;;;;5.57;5.17;;;;;;;14.51;100.00;97253.75;4909917;28;20257;-65
2022/05/13 00:23:16;;;;;;;6.67;6.17;;;;;;;14.48;100.00;97260.31;4946487;28;20284;-66
2022/05/13 00:25:45;;;;;;;6.17;5.77;;;;;;;14.44;100.00;97255.63;4925951;28;20805;-65
2022/05/13 00:28:14;;;;;;;6.07;5.67;;;;;;;14.44;100.00;97253.75;4945505;28;20611;-65
2022/05/13 00:30:48;;;;;;;6.00;5.40;;;;;;;14.53;100.00;97258.88;4930213;28;20305;-64
2022/05/13 00:33:17;;;;;;;8.90;6.00;;;;;;;14.60;100.00;97259.69;4948929;28;20466;-64
2022/05/13 00:35:46;;;;;;;6.60;5.93;;;;;;;14.42;100.00;97253.16;4896459;28;20425;-64
2022/05/13 00:38:16;;;;;;;6.17;5.77;;;;;;;14.52;100.00;97252.72;4946038;28;20226;-67
2022/05/13 00:40:46;;;;;;;5.97;5.57;;;;;;;14.42;100.00;97257.66;4926817;28;20710;-64
2022/05/13 00:43:16;;;;;;;6.73;6.20;;;;;;;14.47;100.00;97248.00;4942798;28;20705;-65
2022/05/13 00:45:44;;;;;;;6.03;5.63;;;;;;;14.44;100.00;97256.41;4931085;28;21610;-65
2022/05/13 00:48:13;;;;;;;6.60;6.10;;;;;;;14.44;100.00;97250.28;4944069;28;20234;-65
2022/05/13 00:50:41;;;;;;;6.30;5.80;;;;;;;14.42;100.00;97255.00;4919187;28;20210;-65
2022/05/13 00:53:13;;;;;;;5.90;5.50;;;;;;;14.42;100.00;97247.00;4908069;28;20320;-64
2022/05/13 00:55:45;;;;;;;6.73;6.03;;;;;;;14.47;100.00;97249.88;4942677;28;20951;-64
2022/05/13 00:58:17;;;;;;;7.13;6.63;;;;;;;14.50;100.00;97251.28;4894105;28;20219;-64
2022/05/13 01:00:46;;;;;;;6.30;5.87;;;;;;;14.48;100.00;97246.97;4942796;28;20203;-65
2022/05/13 01:03:14;;;;;;;6.13;5.70;;;;;;;14.56;100.00;97253.94;4923651;28;20519;-64
2022/05/13 01:05:44;;;;;;;7.57;6.97;;;;;;;14.53;100.00;97249.03;4946772;28;20210;-64
2022/05/13 01:08:13;;;;;;;7.60;7.10;;;;;;;14.53;100.00;97249.03;4897149;28;20670;-64
2022/05/13 01:10:45;;;;;;;6.40;5.90;;;;;;;14.50;100.00;97257.44;4943952;28;20362;-65
2022/05/13 01:13:16;;;;;;;6.43;5.97;;;;;;;14.63;100.00;97253.94;4926829;28;20257;-65
2022/05/13 01:15:46;;;;;;;6.30;5.87;;;;;;;14.65;100.00;97257.22;4942262;28;20210;-64
2022/05/13 01:18:14;;;;;;;7.73;6.57;;;;;;;14.57;100.00;97244.09;4924446;28;20437;-66
2022/05/13 01:20:47;;;;;;;6.93;6.43;;;;;;;14.53;100.00;97256.19;4946289;28;20292;-65
2022/05/13 01:23:19;;;;;;;5.67;5.27;;;;;;;14.56;100.00;97251.28;4899073;28;20748;-65
2022/05/13 01:25:49;;;;;;;6.13;5.63;;;;;;;14.60;100.00;97257.84;4947794;28;20218;-66
2022/05/13 01:28:20;;;;;;;6.00;5.50;;;;;;;14.61;100.00;97259.47;4920242;28;20230;-67
2022/05/13 01:30:51;;;;;;;5.67;5.27;;;;;;;14.60;100.00;97251.69;4948802;28;20679;-66
2022/05/13 01:33:20;;;;;;;5.40;5.00;;;;;;;14.60;100.00;97249.03;4921389;28;20352;-64
2022/05/13 01:35:50;;;;;;;6.27;5.77;;;;;;;14.61;100.00;97250.66;4945367;28;20225;-66
2022/05/13 01:38:21;;;;;;;5.83;5.43;;;;;;;14.61;100.00;97248.00;4900752;28;21015;-64
2022/05/13 01:40:50;;;;;;;6.57;6.17;;;;;;;14.59;100.00;97242.06;4944460;28;20681;-63
2022/05/13 01:43:18;;;;;;;6.63;6.00;;;;;;;14.52;100.00;97243.91;4911396;28;20464;-65
2022/05/13 01:45:46;;;;;;;6.57;6.07;;;;;;;14.55;100.00;97236.31;4941295;28;20307;-65
2022/05/13 01:48:15;;;;;;;8.77;5.77;;;;;;;14.47;100.00;97245.34;4946510;28;20895;-66
2022/05/13 01:50:44;;;;;;;6.00;5.53;;;;;;;14.53;100.00;97241.03;4921304;28;20277;-66
2022/05/13 01:53:12;;;;;;;7.07;5.40;;;;;;;14.56;100.00;97245.13;4901862;28;20715;-65
2022/05/13 01:55:43;;;;;;;6.30;5.53;;;;;;;14.54;100.00;97245.34;4941338;28;20607;-64
2022/05/13 01:58:13;;;;;;;6.30;5.80;;;;;;;14.58;100.00;97246.56;4927318;28;20238;-64
2022/05/13 02:00:42;;;;;;;5.90;5.50;;;;;;;14.57;100.00;97246.75;4939987;28;20241;-65
2022/05/13 02:05:57;;;;;;;6.57;5.97;;;;;;;14.60;100.00;97251.69;4925331;28;20495;-64
2022/05/13 02:08:25;;;;;;;6.37;5.87;;;;;;;14.67;100.00;97254.31;4945369;28;20269;-65
2022/05/13 02:10:55;;;;;;;6.63;6.13;;;;;;;14.64;100.00;97247.59;4899556;28;20497;-62
2022/05/13 02:13:23;;;;;;;6.70;6.10;;;;;;;14.58;100.00;97249.22;4924576;28;20314;-65
2022/05/13 02:15:52;;;;;;;6.43;6.00;;;;;;;14.63;100.00;97240.63;4939920;28;20345;-64
2022/05/13 02:18:21;;;;;;;7.97;5.67;;;;;;;14.58;100.00;97233.22;4943782;28;20711;-63
2022/05/13 02:20:49;;;;;;;6.67;5.97;;;;;;;14.59;100.00;97226.06;4924149;28;20572;-64
2022/05/13 02:23:19;;;;;;;7.07;6.47;;;;;;;14.58;100.00;97235.06;4938865;28;20309;-64
2022/05/13 02:25:48;;;;;;;6.60;6.10;;;;;;;14.52;100.00;97239.41;4896397;28;20380;-64
2022/05/13 02:28:18;;;;;;;6.60;6.10;;;;;;;14.47;100.00;97242.66;4943259;28;20619;-63
2022/05/13 02:30:46;;;;;;;6.50;6.07;;;;;;;14.44;100.00;97237.75;4923775;28;20218;-65
2022/05/13 02:33:14;;;;;;;6.27;5.87;;;;;;;14.42;100.00;97237.16;4942007;28;20250;-63
2022/05/13 02:35:43;;;;;;;6.83;6.17;;;;;;;14.44;100.00;97235.09;4934702;28;20206;-65
2022/05/13 02:38:13;;;;;;;6.87;6.37;;;;;;;14.46;100.00;97235.72;4941285;28;20511;-65
2022/05/13 02:43:29;;;;;;;7.03;6.53;;;;;;;14.40;100.00;97231.22;4939990;28;20714;-65
2022/05/13 02:45:59;;;;;;;6.10;5.70;;;;;;;14.42;100.00;97225.69;4923712;28;20341;-67
2022/05/13 02:48:27;;;;;;;7.83;7.20;;;;;;;14.40;100.00;97230.41;4925804;29;20322;-68
2022/05/13 02:50:55;;;;;;;7.40;6.70;;;;;;;14.37;100.00;97231.63;4900035;29;20569;-64
2022/05/13 02:53:25;;;;;;;7.63;7.07;;;;;;;14.36;100.00;97226.50;4926107;29;20231;-65
2022/05/13 02:55:53;;;;;;;7.30;6.80;;;;;;;14.40;100.00;97225.88;4875990;28;20585;-65
2022/05/13 02:58:21;;;;;;;7.80;7.00;;;;;;;14.36;100.00;97232.66;4925636;28;20313;-64
2022/05/13 03:00:51;;;;;;;8.23;7.47;;;;;;;14.40;100.00;97230.41;4899722;28;20242;-64
2022/05/13 03:03:19;;;;;;;7.87;7.10;;;;;;;14.39;100.00;97234.91;4926222;29;20473;-65
2022/05/13 03:05:48;;;;;;;7.50;6.83;;;;;;;14.46;100.00;97238.38;4921390;29;20289;-65
2022/05/13 03:08:16;;;;;;;8.17;7.37;;;;;;;14.42;100.00;97237.16;4909188;29;20321;-64
2022/05/13 03:10:44;;;;;;;7.90;7.30;;;;;;;14.38;100.00;97235.94;4878307;28;20694;-65
2022/05/13 03:13:13;;;;;;;8.30;7.70;;;;;;;14.36;100.00;97226.50;4926605;28;20289;-66
2022/05/13 03:15:42;;;;;;;7.10;6.47;;;;;;;14.37;100.00;97231.63;4901071;29;20281;-64
2022/05/13 03:18:11;;;;;;;8.03;7.23;;;;;;;14.38;100.00;97235.09;4926048;29;20297;-63
2022/05/13 03:20:40;;;;;;;7.87;7.27;;;;;;;14.41;100.00;97232.84;4927010;29;20245;-64
2022/05/13 03:23:09;;;;;;;8.60;7.87;;;;;;;14.38;100.00;97238.59;4905405;29;20305;-63
2022/05/13 03:25:37;;;;;;;6.73;6.23;;;;;;;14.38;100.00;97227.94;4900194;28;20606;-65
2022/05/13 03:28:06;;;;;;;7.77;7.07;;;;;;;14.36;100.00;97226.50;4913922;29;20219;-65
2022/05/13 03:30:35;;;;;;;7.37;6.80;;;;;;;14.33;100.00;97225.88;4919631;28;20231;-66
2022/05/13 03:33:04;;;;;;;9.07;8.30;;;;;;;14.36;100.00;97235.31;4919819;28;20656;-65
2022/05/13 03:35:33;;;;;;;7.37;6.77;;;;;;;14.35;100.00;97232.84;4903768;29;20298;-66
2022/05/13 03:38:03;;;;;;;7.97;6.83;;;;;;;14.36;100.00;97229.97;4924895;29;20432;-64
2022/05/13 03:40:31;;;;;;;8.00;7.40;;;;;;;14.36;100.00;97237.16;4893672;28;21244;-65
2022/05/13 03:43:00;;;;;;;7.37;6.77;;;;;;;14.43;100.00;97237.97;4898537;28;20242;-67
2022/05/13 03:45:30;;;;;;;7.23;6.73;;;;;;;14.43;100.00;97228.13;4924392;28;20212;-63
2022/05/13 03:47:58;;;;;;;9.77;8.93;;;;;;;14.47;100.00;97240.00;4925001;28;20986;-65
2022/05/13 03:50:27;;;;;;;9.07;8.27;;;;;;;14.44;100.00;97228.97;4945494;28;20223;-68
2022/05/13 03:52:57;;;;;;;7.83;7.07;;;;;;;14.49;100.00;97223.81;4944775;28;20876;-66
2022/05/13 03:55:26;;;;;;;8.13;7.37;;;;;;;14.47;100.00;97228.53;4927207;28;20219;-66
2022/05/13 03:57:58;;;;;;;9.57;8.67;;;;;;;14.39;100.00;97216.25;4884982;28;20218;-66
2022/05/13 04:00:27;;;;;;;7.90;7.20;;;;;;;14.38;100.00;97216.44;4934114;28;20218;-65
2022/05/13 04:02:55;;;;;;;8.03;7.23;;;;;;;14.37;100.00;97220.97;4921901;28;20675;-66
2022/05/13 04:10:56;;;;;;;7.63;6.97;;;;;;;14.42;100.00;97218.50;4924903;28;20237;-65
2022/05/13 04:16:10;;;;;;;8.47;7.77;;;;;;;14.37;100.00;97220.13;4941595;28;20210;-65
2022/05/13 04:18:41;;;;;;;8.03;7.37;;;;;;;14.45;100.00;97222.59;4928430;28;20656;-63
2022/05/13 04:21:12;;;;;;;7.80;7.20;;;;;;;14.41;100.00;97224.03;4923783;28;20261;-65
2022/05/13 04:23:44;;;;;;;7.97;7.20;;;;;;;14.45;100.00;97219.94;4946443;28;20230;-64
2022/05/13 04:26:13;;;;;;;8.43;7.63;;;;;;;14.44;100.00;97224.44;4922830;28;21027;-65
2022/05/13 04:28:42;;;;;;;8.10;7.30;;;;;;;14.55;100.00;97227.47;4900076;28;20215;-65
2022/05/13 04:31:10;;;;;;;7.93;7.20;;;;;;;14.55;100.00;97222.16;4940860;28;20896;-64
2022/05/13 04:33:40;;;;;;;8.80;7.47;;;;;;;14.48;100.00;97228.31;4950262;28;20238;-64
2022/05/13 04:36:08;;;;;;;8.70;7.90;;;;;;;14.55;100.00;97230.16;4905449;28;20485;-67
2022/05/13 04:38:37;;;;;;;7.80;7.20;;;;;;;14.60;100.00;97236.50;4949442;28;20262;-66
2022/05/13 04:43:54;;;;;;;7.67;7.03;;;;;;;14.62;100.00;97245.13;4903626;28;20806;-63
2022/05/13 04:46:23;;;;;;;8.23;7.50;;;;;;;14.60;100.00;97252.50;4946584;28;20878;-64
2022/05/13 04:48:53;;;;;;;8.20;7.40;;;;;;;14.64;100.00;97252.09;4949702;28;20214;-65
2022/05/13 04:51:21;;;;;;;7.77;7.20;;;;;;;14.69;100.00;97247.78;4940668;28;20528;-63
2022/05/13 04:53:51;;;;;;;8.77;7.87;;;;;;;14.84;100.00;97260.91;4930099;28;20317;-64
2022/05/13 04:56:22;;;;;;;8.63;7.63;;;;;;;14.83;100.00;97253.09;4930830;28;20419;-67
2022/05/13 04:58:50;;;;;;;7.47;6.83;;;;;;;14.80;100.00;97248.19;4905533;28;20707;-65
2022/05/13 05:01:20;;;;;;;8.60;7.77;;;;;;;14.82;100.00;97248.78;4941578;28;20478;-64
2022/05/13 05:03:48;;;;;;;7.70;7.00;;;;;;;14.83;100.00;97240.59;4951389;28;20238;-64
2022/05/13 05:06:17;;;;;;;7.43;6.90;;;;;;;14.86;100.00;97256.19;4931452;28;20294;-65
2022/05/13 05:08:46;;;;;;;8.20;7.60;;;;;;;14.83;100.00;97256.59;4948427;28;20316;-64
2022/05/13 05:11:15;;;;;;;8.33;7.70;;;;;;;14.82;100.00;97262.97;4932755;28;20567;-66
2022/05/13 05:13:47;;;;;;;7.67;7.03;;;;;;;14.89;100.00;97258.41;4931493;28;20296;-64
2022/05/13 05:16:16;;;;;;;9.47;7.43;;;;;;;14.94;100.00;97268.44;4920497;28;20210;-63
2022/05/13 05:18:45;;;;;;;7.70;7.10;;;;;;;15.00;100.00;97262.28;4949909;28;20210;-64
2022/05/13 05:21:13;;;;;;;8.00;7.40;;;;;;;15.02;100.00;97262.91;4915889;28;20206;-64
2022/05/13 05:23:44;;;;;;;8.50;7.87;;;;;;;15.07;100.00;97266.78;4948232;28;20306;-63
2022/05/13 05:26:12;;;;;;;8.50;7.83;;;;;;;15.11;100.00;97260.00;4947131;28;20234;-64
2022/05/13 05:28:41;;;;;;;7.93;7.23;;;;;;;15.10;100.00;97261.81;4931552;28;20627;-63
2022/05/13 05:31:12;;;;;;;9.40;8.60;;;;;;;15.07;100.00;97261.44;4904911;28;20317;-63
2022/05/13 05:33:40;;;;;;;7.17;6.67;;;;;;;15.16;100.00;97265.50;4950628;28;20233;-63
2022/05/13 05:36:09;;;;;;;9.03;8.20;;;;;;;15.14;100.00;97271.03;4917788;28;20249;-63
2022/05/13 05:38:37;;;;;;;8.07;7.47;;;;;;;15.17;100.00;97272.47;4943994;28;20309;-64
2022/05/13 05:41:05;;;;;;;8.40;7.70;;;;;;;15.17;100.00;97275.16;4944709;28;20296;-65
2022/05/13 05:43:35;;;;;;;8.47;7.50;;;;;;;15.20;100.00;97272.06;4934437;28;20741;-64
2022/05/13 05:46:04;;;;;;;8.33;7.57;;;;;;;15.24;100.00;97278.59;4903570;28;20280;-66
2022/05/13 05:48:34;;;;;;;6.83;6.30;;;;;;;15.25;100.00;97276.78;4944229;28;20611;-67
2022/05/13 05:51:02;;;;;;;8.40;7.77;;;;;;;15.34;100.00;97283.50;4932826;28;20264;-65
2022/05/13 05:59:04;;;;;;;8.40;7.70;;;;;;;15.51;100.00;97291.84;4927291;28;20631;-65
2022/05/13 06:01:32;;;;;;;8.07;7.37;;;;;;;15.51;100.00;97291.84;4911713;28;20234;-65
2022/05/13 06:04:02;;;;;;;8.13;7.33;;;;;;;15.49;100.00;97300.06;4941102;28;20230;-65
2022/05/13 06:06:30;;;;;;;8.37;7.63;;;;;;;15.48;100.00;97295.75;4948253;28;20265;-66
2022/05/13 06:08:59;;;;;;;11.50;7.80;;;;;;;15.56;100.00;97296.56;4932805;28;20210;-65
2022/05/13 06:11:28;;;;;;;20.40;11.17;;;;;;;15.59;100.00;97301.47;4950618;28;20372;-67
2022/05/13 06:13:57;;;;;;;20.30;11.30;;;;;;;15.67;100.00;97298.53;4937413;28;20226;-66
2022/05/13 06:16:27;;;;;;;8.83;8.13;;;;;;;15.71;100.00;97299.75;4942021;28;20207;-66
2022/05/13 06:18:59;;;;;;;12.93;8.70;;;;;;;15.73;100.00;97296.88;4905937;28;20313;-64
2022/05/13 06:21:31;;;;;;;11.20;7.80;;;;;;;15.86;100.00;97294.13;4944876;28;20199;-63
2022/05/13 06:23:59;;;;;;;8.87;8.17;;;;;;;16.01;100.00;97290.34;4934277;28;20281;-64
2022/05/13 06:26:29;;;;;;;7.77;7.17;;;;;;;16.28;100.00;97292.81;4944858;28;20238;-64
2022/05/13 06:28:58;;;;;;;7.93;7.37;;;;;;;16.41;100.00;97297.25;4934700;28;20274;-65
2022/05/13 06:31:26;;;;;;;8.33;7.53;;;;;;;16.64;100.00;97310.81;4947173;28;20787;-63
2022/05/13 06:33:55;;;;;;;9.43;8.50;;;;;;;16.97;100.00;97298.16;4906880;28;20342;-63
2022/05/13 06:36:23;;;;;;;8.30;7.63;;;;;;;17.35;100.00;97297.13;4948760;28;22398;-64
2022/05/13 06:38:53;;;;;;;6.73;6.20;;;;;;;17.64;100.00;97305.44;4942759;28;20277;-65
2022/05/13 06:41:21;;;;;;;7.93;7.17;;;;;;;17.85;100.00;97305.16;4939111;28;20203;-63
2022/05/13 06:43:49;;;;;;;7.33;6.73;;;;;;;17.85;100.00;97305.97;4945938;28;20316;-63
2022/05/13 06:46:17;;;;;;;8.43;5.90;;;;;;;17.73;100.00;97299.75;4928392;28;20750;-66
2022/05/13 06:48:48;;;;;;;7.00;6.30;;;;;;;17.86;100.00;97301.44;4943490;28;20225;-64
2022/05/13 06:51:16;;;;;;;6.93;6.30;;;;;;;17.93;100.00;97312.88;4918918;28;20547;-63
2022/05/13 06:53:45;;;;;;;6.67;6.17;;;;;;;17.85;100.00;97308.66;4946739;28;20689;-64
2022/05/13 06:56:15;;;;;;;6.13;5.53;;;;;;;17.84;100.00;97306.22;4931452;28;20206;-64
2022/05/13 06:58:43;;;;;;;5.27;4.87;;;;;;;17.82;100.00;97300.25;4948668;28;20210;-64
2022/05/13 07:01:11;;;;;;;6.00;5.50;;;;;;;18.05;100.00;97289.63;4927299;28;20444;-64
2022/05/13 07:03:39;;;;;;;6.20;5.60;;;;;;;18.39;100.00;97296.31;4945646;28;20231;-64
2022/05/13 07:06:08;;;;;;;7.37;6.67;;;;;;;18.56;100.00;97296.47;4905362;28;20598;-63
2022/05/13 07:08:36;;;;;;;5.93;5.53;;;;;;;18.63;100.00;97297.16;4945574;28;20206;-64
2022/05/13 07:11:04;;;;;;;5.27;4.87;;;;;;;18.61;100.00;97304.63;4929604;28;20230;-63
2022/05/13 07:13:35;;;;;;;5.20;4.80;;;;;;;18.61;100.00;97304.63;4950622;28;20249;-63
2022/05/13 07:16:04;;;;;;;5.10;4.67;;;;;;;18.21;100.00;97304.22;4925917;28;20579;-63
2022/05/13 07:18:33;;;;;;;5.10;4.70;;;;;;;18.65;100.00;97306.63;4947162;28;20658;-64
2022/05/13 07:21:02;;;;;;;5.10;4.70;;;;;;;18.79;100.00;97303.69;4908662;28;20276;-64
2022/05/13 07:23:30;;;;;;;5.27;4.77;;;;;;;18.87;100.00;97294.47;4944960;28;20318;-65
2022/05/13 07:25:59;;;;;;;5.00;4.70;;;;;;;19.52;100.00;97285.38;4943268;28;20592;-64
2022/05/13 07:28:27;;;;;;;5.30;4.80;;;;;;;19.81;100.00;97277.31;4934158;28;20217;-64
2022/05/13 07:30:57;;;;;;;4.27;3.97;;;;;;;19.85;100.00;97274.13;4938634;28;20876;-65
2022/05/13 07:33:28;;;;;;;5.90;5.13;;;;;;;19.53;100.00;97273.56;4941600;28;20794;-64
2022/05/13 07:35:57;;;;;;;5.20;4.30;;;;;;;19.28;100.00;97271.19;4920967;28;20293;-65
2022/05/13 07:38:27;;;;;;;4.83;4.33;;;;;;;19.56;100.00;97261.53;4941243;28;20206;-65
2022/05/13 07:43:41;;;;;;;5.10;4.60;;;;;;;19.92;100.00;97269.44;4934800;28;20914;-64
2022/05/13 07:46:11;;;;;;;4.20;3.90;;;;;;;20.08;100.00;97271.34;4944632;28;20234;-63
2022/05/13 07:48:40;;;;;;;4.03;3.73;;;;;;;19.89;100.00;97275.28;4935011;28;20214;-66
2022/05/13 07:51:09;;;;;;;5.10;4.00;;;;;;;19.26;100.00;97289.41;4950494;28;20764;-64
2022/05/13 07:53:38;;;;;;;5.07;3.43;;;;;;;19.24;100.00;97304.97;4912647;28;20241;-64
2022/05/13 07:56:08;;;;;;;4.57;4.20;;;;;;;19.04;100.00;97289.22;4949013;28;20432;-65
2022/05/13 07:58:36;;;;;;;7.07;4.33;;;;;;;19.07;100.00;97292.25;4935963;28;20321;-66
2022/05/13 08:01:05;;;;;;;5.57;3.60;;;;;;;19.21;100.00;97300.88;4947461;28;20221;-64
2022/05/13 08:03:34;;;;;;;3.73;3.43;;;;;;;19.21;100.00;97294.69;4937252;28;20245;-63
2022/05/13 08:06:07;;;;;;;5.60;3.77;;;;;;;19.47;100.00;97298.69;4947254;28;20296;-65
2022/05/13 08:08:40;;;;;;;5.33;3.83;;;;;;;19.97;100.00;97292.91;4911000;28;20325;-66
2022/05/13 08:11:10;;;;;;;6.73;3.80;;;;;;;19.96;100.00;97294.78;4945002;28;20464;-65
2022/05/13 08:13:39;;;;;;;4.07;3.43;;;;;;;19.89;100.00;97291.41;4938422;28;20262;-63
2022/05/13 08:16:10;;;;;;;3.50;3.20;;;;;;;20.36;100.00;97293.03;4948678;28;20230;-63
2022/05/13 08:18:40;;;;;;;7.17;3.50;;;;;;;20.89;100.00;97287.38;4934092;28;20211;-63
2022/05/13 08:21:09;;;;;;;3.37;3.07;;;;;;;20.94;100.00;97282.06;4946928;28;20536;-65
2022/05/13 08:23:37;;;;;;;3.43;3.13;;;;;;;21.25;100.00;97293.22;4911808;28;20692;-64
2022/05/13 08:26:06;;;;;;;4.20;2.97;;;;;;;20.53;100.00;97299.22;4943067;28;20464;-64
2022/05/13 08:28:34;;;;;;;6.27;2.70;;;;;;;20.30;100.00;97294.00;4950823;28;20246;-63
2022/05/13 08:31:03;;;;;;;3.03;2.83;;;;;;;20.33;100.00;97288.16;4933206;28;20528;-64
2022/05/13 08:33:31;;;;;;;3.40;3.13;;;;;;;20.39;100.00;97290.66;4933521;28;20234;-65
2022/05/13 08:36:04;;;;;;;5.50;3.33;;;;;;;20.25;100.00;97292.84;4947705;28;20210;-65
2022/05/13 08:38:34;;;;;;;3.93;3.30;;;;;;;20.24;100.00;97293.91;4907895;28;20217;-64
2022/05/13 08:41:24;;;;;;;4.50;3.40;;;;;;;20.30;100.00;97294.81;4943699;28;20207;-65
2022/05/13 08:43:54;;;;;;;3.40;2.90;;;;;;;20.59;100.00;97299.28;4946999;28;20245;-65
2022/05/13 08:46:32;;;;;;;2.93;2.57;;;;;;;20.08;100.00;97302.78;4943533;28;20227;-64
2022/05/13 08:49:04;;;;;;;3.40;2.80;;;;;;;20.19;100.00;97299.22;4933336;28;20218;-66
2022/05/13 08:51:40;;;;;;;3.87;3.57;;;;;;;19.90;100.00;97303.78;4947218;28;20769;-63
2022/05/13 08:54:14;;;;;;;4.53;3.67;;;;;;;19.93;100.00;97306.84;4905786;28;20253;-63
2022/05/13 08:56:45;;;;;;;3.13;2.93;;;;;;;20.64;100.00;97304.75;4943674;28;20371;-65
2022/05/13 08:59:16;;;;;;;3.17;2.57;;;;;;;21.04;100.00;97302.94;4933057;28;21073;-64
2022/05/13 09:01:47;;;;;;;6.10;3.30;;;;;;;21.32;100.00;97288.47;4951598;28;20202;-64
2022/05/13 09:04:25;;;;;;;3.47;2.80;;;;;;;21.77;100.00;97289.25;4934144;28;20396;-65
2022/05/13 09:06:57;;;;;;;3.33;2.87;;;;;;;21.75;100.00;97279.78;4949462;28;20221;-67
2022/05/13 09:09:26;;;;;;;3.50;2.40;;;;;;;21.64;99.95;97276.19;4911110;28;20241;-67
2022/05/13 09:11:58;;;;;;;3.03;2.77;;;;;;;21.53;100.00;97286.00;4947645;28;20223;-68
2022/05/13 09:14:32;;;;;;;4.90;3.03;;;;;;;22.00;98.27;97281.94;4947422;28;20222;-66
2022/05/13 09:17:17;;;;;;;2.37;2.10;;;;;;;21.43;97.75;97283.22;4931413;28;21358;-66
2022/05/13 09:19:52;;;;;;;2.37;2.20;;;;;;;21.08;100.00;97282.50;4947205;28;20250;-66
2022/05/13 09:22:22;;;;;;;4.80;2.90;;;;;;;20.54;100.00;97287.38;4940602;28;20324;-66
2022/05/13 09:24:50;;;;;;;3.20;3.00;;;;;;;19.72;100.00;97289.50;4908973;28;20227;-65
2022/05/13 09:27:46;;;;;;;4.93;3.40;;;;;;;19.97;100.00;97290.22;4946115;28;20638;-64
2022/05/13 09:30:20;;;;;;;2.60;2.40;;;;;;;20.43;100.00;97279.41;4932522;28;20332;-65
2022/05/13 09:32:49;;;;;;;2.67;2.47;;;;;;;20.32;100.00;97281.13;4933869;28;20275;-64
2022/05/13 09:35:29;;;;;;;4.23;3.00;;;;;;;21.09;100.00;97282.28;4929873;28;20382;-65
2022/05/13 09:37:59;;;;;;;3.60;2.90;;;;;;;21.37;98.26;97271.53;4948774;28;20321;-62
2022/05/13 09:40:28;;;;;;;7.30;3.13;;;;;;;21.55;100.00;97278.50;4909308;28;20226;-64
2022/05/13 09:42:58;;;;;;;4.33;3.47;;;;;;;21.81;98.30;97276.91;4946950;28;20211;-67
2022/05/13 09:45:28;;;;;;;2.93;2.63;;;;;;;21.10;96.74;97273.13;4946190;28;20254;-63
2022/05/13 09:48:12;;;;;;;4.03;2.80;;;;;;;20.79;100.00;97272.72;4933319;28;20711;-64
2022/05/13 09:50:42;;;;;;;2.90;2.70;;;;;;;20.35;100.00;97276.06;4931828;28;20594;-62
2022/05/13 09:53:34;;;;;;;3.10;2.90;;;;;;;20.04;100.00;97275.56;4946202;28;20650;-61
2022/05/13 09:56:04;;;;;;;3.73;2.97;;;;;;;19.98;100.00;97273.84;4908609;28;20838;-64
2022/05/13 09:58:35;;;;;;;3.77;3.07;;;;;;;19.62;100.00;97270.47;4944061;28;20206;-64
2022/05/13 10:01:06;;;;;;;2.93;2.73;;;;;;;19.86;100.00;97262.31;4929364;28;20749;-67
2022/05/13 10:03:38;;;;;;;4.03;2.90;;;;;;;20.32;100.00;97265.00;4932612;28;20432;-64
2022/05/13 10:06:19;;;;;;;4.93;3.27;;;;;;;20.79;100.00;97255.72;4931435;28;20429;-65
2022/05/13 10:08:55;;;;;;;3.73;3.37;;;;;;;20.86;100.00;97259.06;4949873;28;20676;-65
2022/05/13 10:14:27;;;;;;;3.20;3.00;;;;;;;20.53;100.00;97255.34;4948492;28;20539;-65
2022/05/13 10:16:58;;;;;;;3.90;3.13;;;;;;;20.34;100.00;97252.91;4931204;28;20218;-64
2022/05/13 10:19:34;;;;;;;3.00;2.80;;;;;;;19.99;100.00;97240.50;4932892;28;20321;-65
2022/05/13 10:22:09;;;;;;;4.60;4.20;;;;;;;20.12;100.00;97249.34;4931710;28;20272;-65
2022/05/13 10:24:42;;;;;;;6.23;3.97;;;;;;;20.43;100.00;97247.94;4946794;28;20316;-65
2022/05/13 10:27:25;;;;;;;4.77;3.40;;;;;;;21.05;100.00;97248.81;4906869;28;20214;-65
2022/05/13 10:29:56;;;;;;;5.63;3.63;;;;;;;21.29;100.00;97247.75;4945184;28;20686;-65
2022/05/13 10:32:28;;;;;;;4.17;2.90;;;;;;;21.40;94.15;97244.09;4931473;28;20227;-65
2022/05/13 10:35:01;;;;;;;2.73;2.60;;;;;;;21.45;93.50;97246.03;4927918;28;20639;-65
2022/05/13 10:37:34;;;;;;;4.40;2.87;;;;;;;21.27;92.45;97241.78;4932181;28;20773;-63
2022/05/13 10:40:09;;;;;;;3.27;3.00;;;;;;;21.37;90.23;97231.94;4906769;28;20209;-66
2022/05/13 10:42:41;;;;;;;3.80;3.07;;;;;;;21.44;93.73;97230.94;4944811;28;21032;-66
2022/05/13 10:45:18;;;;;;;4.60;3.33;;;;;;;21.49;94.60;97234.47;4947541;28;20206;-65
2022/05/13 10:47:49;;;;;;;4.97;3.10;;;;;;;21.01;85.66;97238.78;4933555;28;21259;-66
2022/05/13 10:50:19;;;;;;;3.90;2.93;;;;;;;20.75;93.54;97241.94;4929324;28;22804;-63
2022/05/13 10:52:54;;;;;;;5.13;3.83;;;;;;;21.27;86.69;97236.41;4944391;28;20758;-64
2022/05/13 10:55:34;;;;;;;3.30;3.00;;;;;;;21.32;87.22;97237.25;4904688;28;20260;-64
2022/05/13 10:58:14;;;;;;;3.27;3.07;;;;;;;20.88;90.94;97242.66;4940562;28;20718;-65
2022/05/13 11:00:48;;;;;;;4.20;2.90;;;;;;;20.47;95.77;97246.38;4944940;28;20210;-66
2022/05/13 11:03:35;;;;;;;4.47;2.80;;;;;;;20.72;93.93;97233.53;4941270;28;20361;-64
2022/05/13 11:06:26;;;;;;;3.63;3.13;;;;;;;20.79;88.29;97231.50;4926478;28;20203;-66
2022/05/13 11:09:01;;;;;;;3.57;3.10;;;;;;;20.88;92.96;97245.34;4941328;28;20242;-66
2022/05/13 11:11:37;;;;;;;3.37;3.07;;;;;;;20.78;88.87;97238.75;4910590;28;20891;-66
2022/05/13 11:14:21;;;;;;;3.87;3.13;;;;;;;21.14;93.40;97227.63;4943077;28;20226;-64
2022/05/13 11:16:53;;;;;;;3.67;3.23;;;;;;;21.16;87.91;97240.84;4930106;28;20760;-65
2022/05/13 11:19:30;;;;;;;4.47;3.43;;;;;;;21.02;84.47;97235.81;4944303;28;20960;-64
2022/05/13 11:22:03;;;;;;;4.53;2.83;;;;;;;21.08;84.47;97247.50;4933269;28;20218;-65
2022/05/13 11:27:40;;;;;;;4.03;2.70;;;;;;;21.27;77.38;97244.50;4913870;28;20309;-65
2022/05/13 11:30:16;;;;;;;2.83;2.60;;;;;;;21.17;77.91;97253.25;4946629;28;20217;-66
2022/05/13 11:32:49;;;;;;;3.40;3.10;;;;;;;21.30;79.84;97242.09;4935363;28;20245;-65
2022/05/13 11:35:39;;;;;;;3.93;2.70;;;;;;;21.63;80.06;97245.69;4943634;28;20332;-64
2022/05/13 11:38:13;;;;;;;4.40;2.43;;;;;;;21.30;71.69;97252.88;4930597;28;20280;-67
2022/05/13 11:40:48;;;;;;;3.10;2.50;;;;;;;21.76;71.89;97243.66;4932880;28;20276;-65
2022/05/13 11:43:43;;;;;;;2.97;2.50;;;;;;;21.83;64.65;97233.50;4907563;28;20231;-65
2022/05/13 11:46:26;;;;;;;3.90;3.60;;;;;;;21.89;72.80;97224.38;4944750;28;20856;-66
2022/05/13 11:48:59;;;;;;;2.33;2.23;;;;;;;22.47;63.67;97233.75;4933514;28;20273;-69
2022/05/13 11:51:30;;;;;;;3.17;2.40;;;;;;;22.84;61.10;97238.28;4941449;28;20314;-67
2022/05/13 11:54:17;;;;;;;3.27;2.27;;;;;;;22.89;59.60;97235.63;4946505;28;20247;-66
2022/05/13 11:56:47;;;;;;;5.90;2.47;;;;;;;22.78;58.44;97240.16;4930772;28;20210;-66
2022/05/13 11:59:45;;;;;;;4.47;2.70;;;;;;;22.48;59.08;97236.19;4913336;28;20229;-65
2022/05/13 12:02:32;;;;;;;2.93;2.40;;;;;;;22.73;54.63;97229.31;4950252;28;20954;-68
2022/05/13 12:05:25;;;;;;;2.73;2.40;;;;;;;22.59;57.37;97233.56;4949275;28;20309;-65
2022/05/13 12:07:56;;;;;;;2.57;2.33;;;;;;;22.62;66.04;97233.03;4939029;28;20749;-64
2022/05/13 12:10:27;;;;;;;3.40;2.60;;;;;;;23.00;57.78;97233.78;4948178;28;20663;-64
2022/05/13 12:13:12;;;;;;;2.63;2.37;;;;;;;22.46;59.21;97232.13;4943773;28;20270;-65
2022/05/13 12:16:05;;;;;;;5.47;2.47;;;;;;;22.44;52.94;97229.66;4904471;28;20579;-64